»·PEaware :: N17TE KEWR-KJFK

N17TE :: KEWR-KJFK

FLIGHT INFORMATION

Flight Status: Arrived
Operator: Privately registered:
United States
More flights under this callsign
Pilot: Nolan D. (4721)
Aircraft: CANADAIR CL-600 CHALLENGER
(CL60)
More flights by this aircraft type
Origin: KEWR Newark Intl
United States
Destination: KJFK Kennedy Intl
United States
More flights between these airports :: More routes between these airports
Route: EWR4 BREZY V39 CMK V419 JUDDS NELIE MAD V1 DPK
File this flight plan on PilotEdge
Remarks: RMK / SIMBRIEF
Altitude:
(Current/Filed)
11,000ft
Speed:
(Current/Filed)
309kts
Departed: 03-Dec-22 07:56 AM
Arrived: 03-Dec-22 08:47 AM
Distance/Time
Traveled:
17nm/0:51
Distance/Time
To Go:
Arrived

Flight Plot

Page will automatically refresh every two minutes.

Flight plan parsing failed; only flown route is shown


Map Options




Map Legend


Flown Route
Filed Route
Departure Airport
Arrival Airport
Navaid (VOR, NDB)
Fix

Horizontal Profiles

Position Reports

Time Latitude Longitude Heading Altitude Ground
Speed
03-Dec-22 07:40 40.705550 -74.169774 11 14ft 0kts
03-Dec-22 07:41 40.705550 -74.169774 11 14ft 0kts
03-Dec-22 07:42 40.705550 -74.169774 11 14ft 0kts
03-Dec-22 07:43 40.705550 -74.169774 11 14ft 0kts
03-Dec-22 07:44 40.705550 -74.169774 11 14ft 0kts
03-Dec-22 07:45 40.705550 -74.169774 11 14ft 0kts
03-Dec-22 07:46 40.705550 -74.169774 11 14ft 0kts
03-Dec-22 07:47 40.705550 -74.169774 11 14ft 0kts
03-Dec-22 07:48 40.705550 -74.169774 11 14ft 0kts
03-Dec-22 07:49 40.705550 -74.169774 11 14ft 0kts
03-Dec-22 07:50 40.705550 -74.169774 11 14ft 0kts
03-Dec-22 07:51 40.705280 -74.168743 141 14ft 9kts
03-Dec-22 07:52 40.703243 -74.170484 274 14ft 18kts
03-Dec-22 07:53 40.703651 -74.178183 274 14ft 24kts
03-Dec-22 07:54 40.703716 -74.179534 272 14ft 0kts
03-Dec-22 07:55 40.701886 -74.164199 90 246ft 162kts
03-Dec-22 07:56 40.733850 -74.124099 330 2380ft 245kts
03-Dec-22 07:57 40.752555 -74.211692 277 4141ft 264kts
03-Dec-22 07:58 40.801883 -74.274528 337 6181ft 272kts
03-Dec-22 07:59 40.875817 -74.261945 19 7039ft 288kts
03-Dec-22 08:00 40.953860 -74.225576 18 10625ft 296kts
03-Dec-22 08:01 41.044165 -74.186127 18 10995ft 349kts
03-Dec-22 08:02 41.134665 -74.143787 30 11000ft 352kts
03-Dec-22 08:03 41.180550 -74.031613 73 11000ft 354kts
03-Dec-22 08:04 41.208826 -73.906766 74 11000ft 354kts
03-Dec-22 08:05 41.236471 -73.781103 74 10994ft 351kts
03-Dec-22 08:06 41.263959 -73.656178 74 10999ft 350kts
03-Dec-22 08:07 41.307366 -73.548017 46 11008ft 328kts
03-Dec-22 08:08 41.371274 -73.460121 45 11000ft 327kts
03-Dec-22 08:09 41.435919 -73.373735 44 11006ft 328kts
03-Dec-22 08:10 41.501046 -73.286391 45 11001ft 328kts
03-Dec-22 08:11 41.566371 -73.199548 44 10996ft 330kts
03-Dec-22 08:12 41.631759 -73.112550 45 11000ft 330kts
03-Dec-22 08:13 41.696504 -73.024432 44 10999ft 332kts
03-Dec-22 08:14 41.761480 -72.935705 44 11284ft 329kts
03-Dec-22 08:15 41.817045 -72.838001 80 12273ft 338kts
03-Dec-22 08:16 41.767733 -72.743882 168 12991ft 339kts
03-Dec-22 08:17 41.670628 -72.733343 175 12990ft 359kts
03-Dec-22 08:18 41.580992 -72.723451 175 13028ft 280kts
03-Dec-22 08:19 41.503895 -72.714381 174 13005ft 277kts
03-Dec-22 08:20 41.423561 -72.704831 174 12636ft 294kts
03-Dec-22 08:21 41.343543 -72.695465 174 12016ft 274kts
03-Dec-22 08:22 41.267484 -72.679829 166 12001ft 274kts
03-Dec-22 08:23 41.192663 -72.655776 166 12002ft 274kts
03-Dec-22 08:24 41.163796 -72.579007 59 12000ft 273kts
03-Dec-22 08:25 41.228292 -72.577591 303 12002ft 272kts
03-Dec-22 08:26 41.272657 -72.659086 321 11999ft 273kts
03-Dec-22 08:27 41.331046 -72.718378 281 11879ft 268kts
03-Dec-22 08:28 41.293588 -72.802789 220 9577ft 285kts
03-Dec-22 08:29 41.231501 -72.867205 217 8045ft 277kts
03-Dec-22 08:30 41.168756 -72.930094 216 7999ft 278kts
03-Dec-22 08:31 41.105849 -72.992862 218 7999ft 278kts
03-Dec-22 08:32 41.043009 -73.055314 216 8001ft 276kts
03-Dec-22 08:33 40.983508 -73.114334 215 7833ft 241kts
03-Dec-22 08:34 40.932168 -73.166253 217 6810ft 228kts
03-Dec-22 08:35 40.903091 -73.236321 255 5761ft 217kts
03-Dec-22 08:36 40.879890 -73.311987 247 4996ft 221kts
03-Dec-22 08:37 40.856867 -73.386660 254 4023ft 219kts
03-Dec-22 08:38 40.843153 -73.462701 257 3083ft 209kts
03-Dec-22 08:39 40.830650 -73.536988 257 2154ft 207kts
03-Dec-22 08:40 40.807116 -73.596247 237 2007ft 174kts
03-Dec-22 08:41 40.781846 -73.649368 237 1997ft 170kts
03-Dec-22 08:43 40.749672 -73.692710 208 1981ft 167kts
03-Dec-22 08:44 40.708473 -73.722573 206 1973ft 169kts
03-Dec-22 08:45 40.672444 -73.745054 212 781ft 128kts
03-Dec-22 08:46 40.644259 -73.768223 209 88ft 117kts
03-Dec-22 08:47 40.626311 -73.782606 268 8ft 27kts
03-Dec-22 08:48 40.630059 -73.781201 31 11ft 23kts
03-Dec-22 08:49 40.634289 -73.780860 302 11ft 23kts
03-Dec-22 08:50 40.638127 -73.789342 297 14ft 19kts
03-Dec-22 08:51 40.642642 -73.798572 317 14ft 31kts
03-Dec-22 08:52 40.647963 -73.809813 300 14ft 36kts
03-Dec-22 08:53 40.649409 -73.810171 335 14ft 0kts
03-Dec-22 08:54 40.649657 -73.810505 315 14ft 0kts
03-Dec-22 08:55 40.649657 -73.810505 315 14ft 0kts
03-Dec-22 08:56 40.649657 -73.810505 315 14ft 0kts
03-Dec-22 08:57 40.649657 -73.810505 315 14ft 0kts
03-Dec-22 08:58 40.649657 -73.810505 315 14ft 0kts
03-Dec-22 08:59 40.649657 -73.810505 315 14ft 0kts
03-Dec-22 09:00 40.649637 -73.810472 300 14ft 2kts
03-Dec-22 09:01 40.649312 -73.809797 302 14ft 2kts

Navigation Log

Ident Type
Flight plan parsing failed, navigation log unavailable